sensor_id;sensor_type;location;lat;lon;timestamp;pressure;altitude;pressure_sealevel;temperature;humidity
16525;BME280;8375;33.594;-117.718;2023-04-04T00:01:05;100011.97;;;15.83;44.32
16525;BME280;8375;33.594;-117.718;2023-04-04T00:03:35;100018.38;;;15.89;42.97
16525;BME280;8375;33.594;-117.718;2023-04-04T00:06:04;100011.72;;;15.95;43.41
16525;BME280;8375;33.594;-117.718;2023-04-04T00:08:34;100006.38;;;16.05;43.79
16525;BME280;8375;33.594;-117.718;2023-04-04T00:11:03;100010.28;;;16.01;44.01
16525;BME280;8375;33.594;-117.718;2023-04-04T00:13:33;100006.28;;;15.88;44.68
16525;BME280;8375;33.594;-117.718;2023-04-04T00:16:02;100011.09;;;15.75;42.52
16525;BME280;8375;33.594;-117.718;2023-04-04T00:18:30;100006.34;;;15.70;44.52
16525;BME280;8375;33.594;-117.718;2023-04-04T00:21:00;100008.44;;;15.66;45.08
16525;BME280;8375;33.594;-117.718;2023-04-04T00:23:28;100004.09;;;15.49;44.73
16525;BME280;8375;33.594;-117.718;2023-04-04T00:25:59;100013.00;;;15.11;44.92
16525;BME280;8375;33.594;-117.718;2023-04-04T00:28:28;100014.03;;;14.92;44.43
16525;BME280;8375;33.594;-117.718;2023-04-04T00:30:56;100012.75;;;14.78;45.35
16525;BME280;8375;33.594;-117.718;2023-04-04T00:33:25;100021.13;;;14.82;47.62
16525;BME280;8375;33.594;-117.718;2023-04-04T00:35:53;100021.72;;;14.76;47.63
16525;BME280;8375;33.594;-117.718;2023-04-04T00:38:22;100018.03;;;14.87;48.70
16525;BME280;8375;33.594;-117.718;2023-04-04T00:40:51;100023.88;;;14.80;47.81
16525;BME280;8375;33.594;-117.718;2023-04-04T00:43:21;100017.59;;;14.73;48.30
16525;BME280;8375;33.594;-117.718;2023-04-04T00:45:51;100016.50;;;14.76;47.84
16525;BME280;8375;33.594;-117.718;2023-04-04T00:48:20;100021.06;;;14.64;46.82
16525;BME280;8375;33.594;-117.718;2023-04-04T00:50:50;100012.88;;;14.59;46.35
16525;BME280;8375;33.594;-117.718;2023-04-04T00:53:19;100014.13;;;14.55;47.53
16525;BME280;8375;33.594;-117.718;2023-04-04T00:55:47;100014.44;;;14.51;47.70
16525;BME280;8375;33.594;-117.718;2023-04-04T00:58:16;100013.97;;;14.38;47.81
16525;BME280;8375;33.594;-117.718;2023-04-04T01:00:46;100008.38;;;14.33;48.13
16525;BME280;8375;33.594;-117.718;2023-04-04T01:03:15;100008.88;;;14.18;48.30
16525;BME280;8375;33.594;-117.718;2023-04-04T01:05:44;100019.84;;;14.22;49.49
16525;BME280;8375;33.594;-117.718;2023-04-04T01:08:15;100011.75;;;14.15;49.73
16525;BME280;8375;33.594;-117.718;2023-04-04T01:10:46;100010.97;;;14.15;49.63
16525;BME280;8375;33.594;-117.718;2023-04-04T01:13:14;100014.38;;;14.15;51.12
16525;BME280;8375;33.594;-117.718;2023-04-04T01:15:43;100017.28;;;14.12;50.62
16525;BME280;8375;33.594;-117.718;2023-04-04T01:18:16;100022.38;;;14.14;50.81
16525;BME280;8375;33.594;-117.718;2023-04-04T01:20:51;100021.53;;;14.13;50.25
16525;BME280;8375;33.594;-117.718;2023-04-04T01:23:25;100020.91;;;14.01;51.87
16525;BME280;8375;33.594;-117.718;2023-04-04T01:26:05;100019.56;;;13.97;50.82
16525;BME280;8375;33.594;-117.718;2023-04-04T01:28:34;100024.91;;;13.96;50.59
16525;BME280;8375;33.594;-117.718;2023-04-04T01:31:05;100032.22;;;13.92;48.85
16525;BME280;8375;33.594;-117.718;2023-04-04T01:33:37;100031.00;;;13.86;49.23
16525;BME280;8375;33.594;-117.718;2023-04-04T01:36:12;100031.28;;;13.83;49.62
16525;BME280;8375;33.594;-117.718;2023-04-04T01:38:51;100037.75;;;13.79;51.80
16525;BME280;8375;33.594;-117.718;2023-04-04T01:41:23;100033.56;;;13.58;48.49
16525;BME280;8375;33.594;-117.718;2023-04-04T01:43:52;100046.47;;;13.50;48.88
16525;BME280;8375;33.594;-117.718;2023-04-04T01:46:22;100043.75;;;13.42;48.87
16525;BME280;8375;33.594;-117.718;2023-04-04T01:48:51;100046.78;;;13.27;49.49
16525;BME280;8375;33.594;-117.718;2023-04-04T01:51:21;100048.81;;;13.24;50.86
16525;BME280;8375;33.594;-117.718;2023-04-04T01:53:50;100049.66;;;13.14;50.86
16525;BME280;8375;33.594;-117.718;2023-04-04T01:56:19;100051.19;;;12.97;51.04
16525;BME280;8375;33.594;-117.718;2023-04-04T01:58:50;100058.44;;;12.94;50.43
16525;BME280;8375;33.594;-117.718;2023-04-04T02:01:19;100050.63;;;12.94;50.53
16525;BME280;8375;33.594;-117.718;2023-04-04T02:03:47;100065.03;;;12.88;51.66
16525;BME280;8375;33.594;-117.718;2023-04-04T02:06:16;100075.41;;;12.78;53.59
16525;BME280;8375;33.594;-117.718;2023-04-04T02:08:45;100072.13;;;12.66;51.41
16525;BME280;8375;33.594;-117.718;2023-04-04T02:11:14;100080.22;;;12.63;53.53
16525;BME280;8375;33.594;-117.718;2023-04-04T02:13:43;100082.50;;;12.56;53.71
16525;BME280;8375;33.594;-117.718;2023-04-04T02:16:14;100080.59;;;12.49;54.29
16525;BME280;8375;33.594;-117.718;2023-04-04T02:18:43;100080.00;;;12.35;53.13
16525;BME280;8375;33.594;-117.718;2023-04-04T02:21:12;100077.66;;;12.32;54.79
16525;BME280;8375;33.594;-117.718;2023-04-04T02:23:41;100081.50;;;12.28;54.55
16525;BME280;8375;33.594;-117.718;2023-04-04T02:26:09;100084.09;;;12.28;56.76
16525;BME280;8375;33.594;-117.718;2023-04-04T02:28:38;100096.78;;;12.21;55.72
16525;BME280;8375;33.594;-117.718;2023-04-04T02:31:07;100093.38;;;12.21;55.10
16525;BME280;8375;33.594;-117.718;2023-04-04T02:33:37;100102.97;;;12.20;53.32
16525;BME280;8375;33.594;-117.718;2023-04-04T02:36:06;100103.78;;;12.21;51.86
16525;BME280;8375;33.594;-117.718;2023-04-04T02:38:35;100108.31;;;12.18;53.21
16525;BME280;8375;33.594;-117.718;2023-04-04T02:41:04;100109.38;;;12.16;50.91
16525;BME280;8375;33.594;-117.718;2023-04-04T02:43:33;100102.66;;;12.13;49.90
16525;BME280;8375;33.594;-117.718;2023-04-04T02:46:02;100108.56;;;12.15;50.67
16525;BME280;8375;33.594;-117.718;2023-04-04T02:48:31;100107.34;;;12.20;53.73
16525;BME280;8375;33.594;-117.718;2023-04-04T02:51:02;100115.25;;;12.08;49.14
16525;BME280;8375;33.594;-117.718;2023-04-04T02:53:31;100111.75;;;11.98;40.81
16525;BME280;8375;33.594;-117.718;2023-04-04T02:56:02;100115.56;;;11.94;36.90
16525;BME280;8375;33.594;-117.718;2023-04-04T02:58:31;100114.47;;;11.96;34.45
16525;BME280;8375;33.594;-117.718;2023-04-04T03:01:00;100121.91;;;12.01;26.76
16525;BME280;8375;33.594;-117.718;2023-04-04T03:03:28;100128.16;;;11.98;27.88
16525;BME280;8375;33.594;-117.718;2023-04-04T03:05:58;100135.97;;;11.98;26.02
16525;BME280;8375;33.594;-117.718;2023-04-04T03:08:28;100142.97;;;11.98;27.89
16525;BME280;8375;33.594;-117.718;2023-04-04T03:10:57;100142.38;;;11.94;27.72
16525;BME280;8375;33.594;-117.718;2023-04-04T03:13:26;100151.53;;;11.88;25.35
16525;BME280;8375;33.594;-117.718;2023-04-04T03:15:59;100156.28;;;11.83;25.58
16525;BME280;8375;33.594;-117.718;2023-04-04T03:18:28;100159.16;;;11.80;24.95
16525;BME280;8375;33.594;-117.718;2023-04-04T03:20:57;100162.13;;;11.76;25.70
16525;BME280;8375;33.594;-117.718;2023-04-04T03:23:27;100166.69;;;11.83;27.31
16525;BME280;8375;33.594;-117.718;2023-04-04T03:25:55;100174.88;;;11.79;26.85
16525;BME280;8375;33.594;-117.718;2023-04-04T03:28:24;100190.47;;;11.79;27.04
16525;BME280;8375;33.594;-117.718;2023-04-04T03:30:53;100185.22;;;11.69;25.46
16525;BME280;8375;33.594;-117.718;2023-04-04T03:33:22;100182.47;;;11.70;27.99
16525;BME280;8375;33.594;-117.718;2023-04-04T03:35:51;100203.16;;;11.72;28.09
16525;BME280;8375;33.594;-117.718;2023-04-04T03:38:20;100193.13;;;11.67;24.60
16525;BME280;8375;33.594;-117.718;2023-04-04T03:41:00;100198.31;;;11.67;25.70
16525;BME280;8375;33.594;-117.718;2023-04-04T03:43:29;100205.81;;;11.61;29.21
16525;BME280;8375;33.594;-117.718;2023-04-04T03:46:02;100207.97;;;11.55;27.29
16525;BME280;8375;33.594;-117.718;2023-04-04T03:48:31;100210.22;;;11.49;26.07
16525;BME280;8375;33.594;-117.718;2023-04-04T03:51:02;100214.84;;;11.45;26.71
16525;BME280;8375;33.594;-117.718;2023-04-04T03:53:30;100228.44;;;11.37;25.89
16525;BME280;8375;33.594;-117.718;2023-04-04T03:56:03;100233.28;;;11.42;25.24
16525;BME280;8375;33.594;-117.718;2023-04-04T03:58:31;100225.97;;;11.36;26.56
16525;BME280;8375;33.594;-117.718;2023-04-04T04:01:03;100236.88;;;11.29;25.27
16525;BME280;8375;33.594;-117.718;2023-04-04T04:03:33;100243.97;;;11.27;30.61
16525;BME280;8375;33.594;-117.718;2023-04-04T04:06:03;100243.34;;;11.24;27.97
16525;BME280;8375;33.594;-117.718;2023-04-04T04:08:32;100256.72;;;11.30;35.00
16525;BME280;8375;33.594;-117.718;2023-04-04T04:11:05;100262.16;;;11.27;30.67
16525;BME280;8375;33.594;-117.718;2023-04-04T04:13:35;100274.06;;;11.19;28.08
16525;BME280;8375;33.594;-117.718;2023-04-04T04:16:04;100281.06;;;11.18;27.67
16525;BME280;8375;33.594;-117.718;2023-04-04T04:18:33;100285.78;;;11.13;29.14
16525;BME280;8375;33.594;-117.718;2023-04-04T04:21:02;100285.78;;;11.13;30.98
16525;BME280;8375;33.594;-117.718;2023-04-04T04:23:32;100287.19;;;11.17;31.27
16525;BME280;8375;33.594;-117.718;2023-04-04T04:26:01;100290.50;;;11.08;29.79
16525;BME280;8375;33.594;-117.718;2023-04-04T04:28:31;100297.22;;;11.10;30.43
16525;BME280;8375;33.594;-117.718;2023-04-04T04:31:04;100294.41;;;11.02;29.56
16525;BME280;8375;33.594;-117.718;2023-04-04T04:33:33;100303.50;;;10.96;27.42
16525;BME280;8375;33.594;-117.718;2023-04-04T04:36:03;100305.25;;;10.96;29.29
16525;BME280;8375;33.594;-117.718;2023-04-04T04:38:32;100301.47;;;10.89;26.93
16525;BME280;8375;33.594;-117.718;2023-04-04T04:41:01;100317.44;;;10.84;29.24
16525;BME280;8375;33.594;-117.718;2023-04-04T04:43:31;100321.69;;;10.85;32.43
16525;BME280;8375;33.594;-117.718;2023-04-04T04:46:02;100317.06;;;10.77;27.90
16525;BME280;8375;33.594;-117.718;2023-04-04T04:48:31;100320.38;;;10.79;26.86
16525;BME280;8375;33.594;-117.718;2023-04-04T04:50:59;100322.97;;;10.79;29.52
16525;BME280;8375;33.594;-117.718;2023-04-04T04:53:30;100324.59;;;10.69;26.91
16525;BME280;8375;33.594;-117.718;2023-04-04T04:56:03;100318.69;;;10.67;26.53
16525;BME280;8375;33.594;-117.718;2023-04-04T04:58:39;100330.72;;;10.68;27.08
16525;BME280;8375;33.594;-117.718;2023-04-04T05:01:07;100335.13;;;10.67;26.84
16525;BME280;8375;33.594;-117.718;2023-04-04T05:03:36;100342.41;;;10.62;26.72
16525;BME280;8375;33.594;-117.718;2023-04-04T05:06:07;100338.50;;;10.56;28.29
16525;BME280;8375;33.594;-117.718;2023-04-04T05:08:38;100347.31;;;10.54;28.29
16525;BME280;8375;33.594;-117.718;2023-04-04T05:11:06;100346.25;;;10.45;27.80
16525;BME280;8375;33.594;-117.718;2023-04-04T05:13:38;100350.28;;;10.49;28.07
16525;BME280;8375;33.594;-117.718;2023-04-04T05:16:07;100348.72;;;10.47;27.76
16525;BME280;8375;33.594;-117.718;2023-04-04T05:18:36;100344.00;;;10.40;26.93
16525;BME280;8375;33.594;-117.718;2023-04-04T05:21:07;100351.03;;;10.38;27.53
16525;BME280;8375;33.594;-117.718;2023-04-04T05:23:36;100356.88;;;10.29;27.18
16525;BME280;8375;33.594;-117.718;2023-04-04T05:26:04;100349.81;;;10.31;28.51
16525;BME280;8375;33.594;-117.718;2023-04-04T05:28:33;100344.63;;;10.31;27.35
16525;BME280;8375;33.594;-117.718;2023-04-04T05:31:04;100360.56;;;10.26;27.87
16525;BME280;8375;33.594;-117.718;2023-04-04T05:33:32;100351.84;;;10.27;26.98
16525;BME280;8375;33.594;-117.718;2023-04-04T05:36:01;100345.09;;;10.25;28.01
16525;BME280;8375;33.594;-117.718;2023-04-04T05:38:30;100347.91;;;10.22;26.59
16525;BME280;8375;33.594;-117.718;2023-04-04T05:41:00;100342.84;;;10.20;26.98
16525;BME280;8375;33.594;-117.718;2023-04-04T05:43:29;100337.16;;;10.15;27.07
16525;BME280;8375;33.594;-117.718;2023-04-04T05:45:58;100324.97;;;10.04;26.00
16525;BME280;8375;33.594;-117.718;2023-04-04T05:48:30;100335.19;;;9.94;27.02
16525;BME280;8375;33.594;-117.718;2023-04-04T05:50:59;100321.59;;;9.91;26.88
16525;BME280;8375;33.594;-117.718;2023-04-04T05:53:28;100330.72;;;9.96;28.15
16525;BME280;8375;33.594;-117.718;2023-04-04T05:55:56;100334.34;;;9.94;27.48
16525;BME280;8375;33.594;-117.718;2023-04-04T05:58:26;100339.38;;;9.84;26.30
16525;BME280;8375;33.594;-117.718;2023-04-04T06:00:55;100319.94;;;9.90;25.74
16525;BME280;8375;33.594;-117.718;2023-04-04T06:03:23;100345.06;;;9.89;25.70
16525;BME280;8375;33.594;-117.718;2023-04-04T06:05:55;100332.19;;;9.88;25.78
16525;BME280;8375;33.594;-117.718;2023-04-04T06:08:24;100342.78;;;9.84;24.54
16525;BME280;8375;33.594;-117.718;2023-04-04T06:10:53;100356.59;;;9.85;26.67
16525;BME280;8375;33.594;-117.718;2023-04-04T06:13:22;100353.06;;;9.86;25.42
16525;BME280;8375;33.594;-117.718;2023-04-04T06:15:51;100341.03;;;9.85;25.50
16525;BME280;8375;33.594;-117.718;2023-04-04T06:18:21;100345.50;;;9.83;26.73
16525;BME280;8375;33.594;-117.718;2023-04-04T06:20:50;100350.06;;;9.79;25.58
16525;BME280;8375;33.594;-117.718;2023-04-04T06:23:20;100355.69;;;9.73;26.70
16525;BME280;8375;33.594;-117.718;2023-04-04T06:25:49;100345.31;;;9.73;26.90
16525;BME280;8375;33.594;-117.718;2023-04-04T06:28:17;100355.31;;;9.66;26.69
16525;BME280;8375;33.594;-117.718;2023-04-04T06:30:46;100356.63;;;9.72;25.94
16525;BME280;8375;33.594;-117.718;2023-04-04T06:33:16;100352.16;;;9.74;25.91
16525;BME280;8375;33.594;-117.718;2023-04-04T06:35:45;100346.16;;;9.74;27.94
16525;BME280;8375;33.594;-117.718;2023-04-04T06:38:14;100354.25;;;9.69;28.68
16525;BME280;8375;33.594;-117.718;2023-04-04T06:40:44;100352.00;;;9.64;26.44
16525;BME280;8375;33.594;-117.718;2023-04-04T06:43:13;100361.50;;;9.64;28.05
16525;BME280;8375;33.594;-117.718;2023-04-04T06:45:42;100362.66;;;9.60;27.98
16525;BME280;8375;33.594;-117.718;2023-04-04T06:48:11;100360.06;;;9.60;27.22
16525;BME280;8375;33.594;-117.718;2023-04-04T06:50:41;100370.44;;;9.60;26.00
16525;BME280;8375;33.594;-117.718;2023-04-04T06:53:09;100361.72;;;9.61;28.97
16525;BME280;8375;33.594;-117.718;2023-04-04T06:55:38;100372.31;;;9.58;27.86
16525;BME280;8375;33.594;-117.718;2023-04-04T06:58:10;100378.22;;;9.60;26.67
16525;BME280;8375;33.594;-117.718;2023-04-04T07:00:38;100361.13;;;9.57;29.12
16525;BME280;8375;33.594;-117.718;2023-04-04T07:03:07;100380.22;;;9.56;27.51
16525;BME280;8375;33.594;-117.718;2023-04-04T07:05:37;100372.44;;;9.56;28.53
16525;BME280;8375;33.594;-117.718;2023-04-04T07:08:08;100379.50;;;9.54;28.96
16525;BME280;8375;33.594;-117.718;2023-04-04T07:10:38;100376.06;;;9.53;28.30
16525;BME280;8375;33.594;-117.718;2023-04-04T07:13:09;100372.22;;;9.46;27.16
16525;BME280;8375;33.594;-117.718;2023-04-04T07:15:38;100383.75;;;9.42;28.67
16525;BME280;8375;33.594;-117.718;2023-04-04T07:18:06;100378.47;;;9.44;31.63
16525;BME280;8375;33.594;-117.718;2023-04-04T07:20:35;100378.06;;;9.37;27.95
16525;BME280;8375;33.594;-117.718;2023-04-04T07:23:03;100382.13;;;9.28;30.70
16525;BME280;8375;33.594;-117.718;2023-04-04T07:25:34;100379.63;;;9.27;30.04
16525;BME280;8375;33.594;-117.718;2023-04-04T07:28:04;100381.50;;;9.24;31.40
16525;BME280;8375;33.594;-117.718;2023-04-04T07:30:35;100389.38;;;9.23;29.85
16525;BME280;8375;33.594;-117.718;2023-04-04T07:33:03;100389.38;;;9.23;30.02
16525;BME280;8375;33.594;-117.718;2023-04-04T07:35:33;100392.06;;;9.21;29.17
16525;BME280;8375;33.594;-117.718;2023-04-04T07:38:01;100400.97;;;9.17;29.76
16525;BME280;8375;33.594;-117.718;2023-04-04T07:40:30;100389.16;;;9.13;30.13
16525;BME280;8375;33.594;-117.718;2023-04-04T07:42:59;100401.19;;;9.14;29.51
16525;BME280;8375;33.594;-117.718;2023-04-04T07:45:28;100397.78;;;9.14;30.06
16525;BME280;8375;33.594;-117.718;2023-04-04T07:47:58;100401.28;;;9.13;34.59
16525;BME280;8375;33.594;-117.718;2023-04-04T07:50:27;100410.09;;;9.10;30.29
16525;BME280;8375;33.594;-117.718;2023-04-04T07:52:56;100408.44;;;9.09;32.41
16525;BME280;8375;33.594;-117.718;2023-04-04T07:55:24;100394.53;;;9.10;29.56
16525;BME280;8375;33.594;-117.718;2023-04-04T07:57:53;100373.94;;;9.08;30.90
16525;BME280;8375;33.594;-117.718;2023-04-04T08:00:22;100378.19;;;9.09;30.30
16525;BME280;8375;33.594;-117.718;2023-04-04T08:02:52;100371.44;;;9.07;30.34
16525;BME280;8375;33.594;-117.718;2023-04-04T08:05:22;100370.72;;;9.05;29.71
16525;BME280;8375;33.594;-117.718;2023-04-04T08:07:51;100373.72;;;8.99;30.93
16525;BME280;8375;33.594;-117.718;2023-04-04T08:10:19;100379.53;;;9.02;30.96
16525;BME280;8375;33.594;-117.718;2023-04-04T08:12:48;100389.91;;;9.02;31.75
16525;BME280;8375;33.594;-117.718;2023-04-04T08:15:18;100392.88;;;9.09;32.76
16525;BME280;8375;33.594;-117.718;2023-04-04T08:17:47;100391.03;;;8.98;30.24
16525;BME280;8375;33.594;-117.718;2023-04-04T08:20:15;100391.84;;;8.99;31.26
16525;BME280;8375;33.594;-117.718;2023-04-04T08:22:46;100392.25;;;8.92;30.93
16525;BME280;8375;33.594;-117.718;2023-04-04T08:25:14;100395.78;;;8.91;31.39
16525;BME280;8375;33.594;-117.718;2023-04-04T08:27:43;100397.34;;;8.94;32.12
16525;BME280;8375;33.594;-117.718;2023-04-04T08:30:13;100402.63;;;8.92;32.42
16525;BME280;8375;33.594;-117.718;2023-04-04T08:32:42;100402.63;;;8.92;30.56
16525;BME280;8375;33.594;-117.718;2023-04-04T08:35:11;100394.84;;;8.92;30.58
16525;BME280;8375;33.594;-117.718;2023-04-04T08:37:45;100409.47;;;8.93;30.73
16525;BME280;8375;33.594;-117.718;2023-04-04T08:40:14;100406.13;;;8.91;31.75
16525;BME280;8375;33.594;-117.718;2023-04-04T08:42:43;100403.56;;;8.91;32.77
16525;BME280;8375;33.594;-117.718;2023-04-04T08:45:16;100395.78;;;8.91;30.97
16525;BME280;8375;33.594;-117.718;2023-04-04T08:47:48;100394.97;;;8.91;32.68
16525;BME280;8375;33.594;-117.718;2023-04-04T08:50:18;100396.19;;;8.85;33.06
16525;BME280;8375;33.594;-117.718;2023-04-04T08:52:50;100386.16;;;8.80;31.86
16525;BME280;8375;33.594;-117.718;2023-04-04T08:55:20;100393.59;;;8.85;31.94
16525;BME280;8375;33.594;-117.718;2023-04-04T08:57:48;100384.38;;;8.81;32.90
16525;BME280;8375;33.594;-117.718;2023-04-04T09:00:22;100377.75;;;8.77;32.09
16525;BME280;8375;33.594;-117.718;2023-04-04T09:02:55;100374.56;;;8.73;33.04
16525;BME280;8375;33.594;-117.718;2023-04-04T09:05:26;100371.75;;;8.76;32.32
16525;BME280;8375;33.594;-117.718;2023-04-04T09:07:57;100374.44;;;8.75;35.55
16525;BME280;8375;33.594;-117.718;2023-04-04T09:10:26;100374.84;;;8.69;33.09
16525;BME280;8375;33.594;-117.718;2023-04-04T09:12:56;100378.16;;;8.71;33.13
16525;BME280;8375;33.594;-117.718;2023-04-04T09:15:24;100379.28;;;8.66;32.70
16525;BME280;8375;33.594;-117.718;2023-04-04T09:17:53;100385.41;;;8.65;32.12
16525;BME280;8375;33.594;-117.718;2023-04-04T09:20:36;100388.91;;;8.64;32.66
16525;BME280;8375;33.594;-117.718;2023-04-04T09:23:08;100387.25;;;8.63;32.44
16525;BME280;8375;33.594;-117.718;2023-04-04T09:25:37;100388.31;;;8.61;33.74
16525;BME280;8375;33.594;-117.718;2023-04-04T09:28:05;100379.28;;;8.66;35.71
16525;BME280;8375;33.594;-117.718;2023-04-04T09:30:34;100387.06;;;8.66;33.75
16525;BME280;8375;33.594;-117.718;2023-04-04T09:33:04;100388.91;;;8.64;33.24
16525;BME280;8375;33.594;-117.718;2023-04-04T09:35:34;100388.19;;;8.62;35.68
16525;BME280;8375;33.594;-117.718;2023-04-04T09:38:06;100388.19;;;8.62;33.42
16525;BME280;8375;33.594;-117.718;2023-04-04T09:40:36;100394.59;;;8.57;38.47
16525;BME280;8375;33.594;-117.718;2023-04-04T09:43:09;100388.34;;;8.46;33.93
16525;BME280;8375;33.594;-117.718;2023-04-04T09:45:40;100393.81;;;8.42;33.73
16525;BME280;8375;33.594;-117.718;2023-04-04T09:48:10;100391.41;;;8.39;34.29
16525;BME280;8375;33.594;-117.718;2023-04-04T09:50:45;100394.00;;;8.39;34.10
16525;BME280;8375;33.594;-117.718;2023-04-04T09:53:17;100392.41;;;8.23;33.99
16525;BME280;8375;33.594;-117.718;2023-04-04T09:55:49;100395.38;;;8.17;33.01
16525;BME280;8375;33.594;-117.718;2023-04-04T09:58:23;100394.50;;;8.03;34.47
16525;BME280;8375;33.594;-117.718;2023-04-04T10:00:52;100406.06;;;7.98;36.29
16525;BME280;8375;33.594;-117.718;2023-04-04T10:03:23;100393.22;;;7.96;36.66
16525;BME280;8375;33.594;-117.718;2023-04-04T10:05:56;100387.84;;;7.99;33.37
16525;BME280;8375;33.594;-117.718;2023-04-04T10:08:28;100389.44;;;8.02;35.28
16525;BME280;8375;33.594;-117.718;2023-04-04T10:10:58;100387.97;;;7.98;39.00
16525;BME280;8375;33.594;-117.718;2023-04-04T10:13:28;100391.94;;;7.89;40.26
16525;BME280;8375;33.594;-117.718;2023-04-04T10:15:59;100381.16;;;7.82;35.63
16525;BME280;8375;33.594;-117.718;2023-04-04T10:18:29;100387.25;;;7.81;40.90
16525;BME280;8375;33.594;-117.718;2023-04-04T10:21:00;100387.06;;;7.84;39.33
16525;BME280;8375;33.594;-117.718;2023-04-04T10:23:31;100390.56;;;7.83;37.29
16525;BME280;8375;33.594;-117.718;2023-04-04T10:26:02;100387.59;;;7.89;41.38
16525;BME280;8375;33.594;-117.718;2023-04-04T10:28:30;100384.19;;;7.89;41.02
16525;BME280;8375;33.594;-117.718;2023-04-04T10:31:07;100380.53;;;7.78;39.99
16525;BME280;8375;33.594;-117.718;2023-04-04T10:33:49;100387.44;;;7.78;46.36
16525;BME280;8375;33.594;-117.718;2023-04-04T10:36:21;100395.38;;;7.75;43.64
16525;BME280;8375;33.594;-117.718;2023-04-04T10:39:01;100396.13;;;7.62;37.88
16525;BME280;8375;33.594;-117.718;2023-04-04T10:41:32;100400.13;;;7.54;36.45
16525;BME280;8375;33.594;-117.718;2023-04-04T10:44:15;100405.47;;;7.36;37.40
16525;BME280;8375;33.594;-117.718;2023-04-04T10:46:46;100404.75;;;7.34;40.68
16525;BME280;8375;33.594;-117.718;2023-04-04T10:49:20;100416.19;;;7.30;40.32
16525;BME280;8375;33.594;-117.718;2023-04-04T10:51:50;100405.19;;;7.26;42.03
16525;BME280;8375;33.594;-117.718;2023-04-04T10:54:21;100411.09;;;7.28;43.36
16525;BME280;8375;33.594;-117.718;2023-04-04T10:56:50;100406.22;;;7.24;43.99
16525;BME280;8375;33.594;-117.718;2023-04-04T10:59:19;100404.00;;;7.17;43.26
16525;BME280;8375;33.594;-117.718;2023-04-04T11:01:53;100405.00;;;7.15;45.47
16525;BME280;8375;33.594;-117.718;2023-04-04T11:04:30;100406.94;;;7.11;48.70
16525;BME280;8375;33.594;-117.718;2023-04-04T11:07:13;100407.91;;;6.94;44.94
16525;BME280;8375;33.594;-117.718;2023-04-04T11:09:48;100407.84;;;6.96;48.25
16525;BME280;8375;33.594;-117.718;2023-04-04T11:12:20;100398.69;;;6.90;43.64
16525;BME280;8375;33.594;-117.718;2023-04-04T11:14:57;100398.88;;;6.87;45.03
16525;BME280;8375;33.594;-117.718;2023-04-04T11:17:54;100398.94;;;6.71;44.88
16525;BME280;8375;33.594;-117.718;2023-04-04T11:20:28;100392.28;;;6.67;45.21
16525;BME280;8375;33.594;-117.718;2023-04-04T11:23:04;100395.66;;;6.53;42.43
16525;BME280;8375;33.594;-117.718;2023-04-04T11:25:49;100394.31;;;6.62;47.40
16525;BME280;8375;33.594;-117.718;2023-04-04T11:28:41;100402.16;;;6.44;47.00
16525;BME280;8375;33.594;-117.718;2023-04-04T11:31:25;100408.41;;;6.40;50.81
16525;BME280;8375;33.594;-117.718;2023-04-04T11:33:56;100409.22;;;6.40;53.17
16525;BME280;8375;33.594;-117.718;2023-04-04T11:36:52;100406.94;;;6.36;49.39
16525;BME280;8375;33.594;-117.718;2023-04-04T11:39:24;100413.66;;;6.38;49.56
16525;BME280;8375;33.594;-117.718;2023-04-04T11:41:56;100407.66;;;6.38;49.32
16525;BME280;8375;33.594;-117.718;2023-04-04T11:44:30;100414.91;;;6.47;50.80
16525;BME280;8375;33.594;-117.718;2023-04-04T11:47:08;100418.16;;;6.35;45.43
16525;BME280;8375;33.594;-117.718;2023-04-04T11:49:40;100421.72;;;6.48;54.84
16525;BME280;8375;33.594;-117.718;2023-04-04T11:52:09;100418.50;;;6.59;50.16
16525;BME280;8375;33.594;-117.718;2023-04-04T11:54:40;100423.72;;;6.73;53.85
16525;BME280;8375;33.594;-117.718;2023-04-04T11:57:13;100423.28;;;6.81;50.84
16525;BME280;8375;33.594;-117.718;2023-04-04T11:59:43;100420.16;;;6.76;51.25
16525;BME280;8375;33.594;-117.718;2023-04-04T12:02:13;100427.25;;;6.87;51.83
16525;BME280;8375;33.594;-117.718;2023-04-04T12:04:43;100426.34;;;6.88;54.92
16525;BME280;8375;33.594;-117.718;2023-04-04T12:07:13;100434.19;;;6.86;51.54
16525;BME280;8375;33.594;-117.718;2023-04-04T12:09:44;100429.28;;;6.82;46.02
16525;BME280;8375;33.594;-117.718;2023-04-04T12:12:15;100433.78;;;6.78;50.00
16525;BME280;8375;33.594;-117.718;2023-04-04T12:14:44;100430.38;;;6.78;55.35
16525;BME280;8375;33.594;-117.718;2023-04-04T12:17:14;100428.00;;;6.89;55.56
16525;BME280;8375;33.594;-117.718;2023-04-04T12:19:43;100431.22;;;6.78;54.43
16525;BME280;8375;33.594;-117.718;2023-04-04T12:22:12;100428.41;;;6.67;52.60
16525;BME280;8375;33.594;-117.718;2023-04-04T12:24:41;100433.25;;;6.57;56.43
16525;BME280;8375;33.594;-117.718;2023-04-04T12:27:10;100446.41;;;6.52;56.60
16525;BME280;8375;33.594;-117.718;2023-04-04T12:29:41;100450.63;;;6.69;59.38
16525;BME280;8375;33.594;-117.718;2023-04-04T12:32:14;100455.06;;;6.51;55.34
16525;BME280;8375;33.594;-117.718;2023-04-04T12:34:43;100464.53;;;6.51;55.94
16525;BME280;8375;33.594;-117.718;2023-04-04T12:37:14;100460.09;;;6.22;55.09
16525;BME280;8375;33.594;-117.718;2023-04-04T12:39:47;100468.47;;;6.26;56.14
16525;BME280;8375;33.594;-117.718;2023-04-04T12:42:20;100470.63;;;6.18;54.18
16525;BME280;8375;33.594;-117.718;2023-04-04T12:44:51;100470.16;;;6.11;55.76
16525;BME280;8375;33.594;-117.718;2023-04-04T12:47:20;100468.97;;;6.00;59.91
16525;BME280;8375;33.594;-117.718;2023-04-04T12:49:52;100482.00;;;5.97;55.41
16525;BME280;8375;33.594;-117.718;2023-04-04T12:52:25;100478.50;;;5.98;54.95